Time;durP1;ratioP1;P1;durP2;ratioP2;P2;SDS_P1;SDS_P2;PMS_P1;PMS_P2;Temp;Humidity;BMP_temperature;BMP_pressure;BME280_temperature;BME280_humidity;BME280_pressure;Samples;Min_cycle;Max_cycle;Signal;HPM_P1;HPM_P2
2022/09/25 00:00:35;;;;;;;12.93;10.10;;;13.30;99.90;;;;;;5031114;28;20487;-75
2022/09/25 00:03:00;;;;;;;14.93;11.07;;;13.30;99.90;;;;;;5036460;28;20037;-75
2022/09/25 00:05:26;;;;;;;13.90;10.50;;;13.30;99.90;;;;;;5030177;28;20450;-76
2022/09/25 00:07:54;;;;;;;15.95;10.18;;;13.40;99.90;;;;;;5032758;28;20034;-75
2022/09/25 00:10:19;;;;;;;14.57;9.68;;;13.40;99.90;;;;;;5031317;28;20042;-75
2022/09/25 00:12:45;;;;;;;19.35;11.52;;;13.40;99.90;;;;;;5032497;28;20507;-75
2022/09/25 00:15:11;;;;;;;14.57;9.82;;;13.50;99.90;;;;;;5034310;28;20032;-74
2022/09/25 00:17:36;;;;;;;14.35;9.80;;;13.50;99.90;;;;;;5031313;28;20030;-75
2022/09/25 00:20:03;;;;;;;14.15;10.02;;;13.60;99.90;;;;;;5031479;28;20080;-75
2022/09/25 00:22:29;;;;;;;13.05;9.63;;;13.60;99.90;;;;;;5030736;28;20025;-75
2022/09/25 00:24:54;;;;;;;13.27;9.27;;;13.60;99.90;;;;;;5029005;28;20087;-75
2022/09/25 00:27:20;;;;;;;14.45;9.35;;;13.60;99.90;;;;;;5041854;28;20030;-76
2022/09/25 00:29:46;;;;;;;13.18;9.68;;;13.40;99.90;;;;;;5030361;28;20052;-75
2022/09/25 00:32:14;;;;;;;15.85;9.48;;;13.30;99.90;;;;;;5034698;28;20061;-76
2022/09/25 00:34:40;;;;;;;14.13;10.93;;;13.30;99.90;;;;;;5031199;28;20030;-75
2022/09/25 00:37:06;;;;;;;14.55;9.48;;;13.30;99.90;;;;;;5032825;28;20038;-75
2022/09/25 00:39:32;;;;;;;12.55;9.07;;;13.30;99.90;;;;;;5029351;28;20029;-75
2022/09/25 00:41:58;;;;;;;12.00;8.70;;;13.40;99.90;;;;;;5031204;28;20488;-76
2022/09/25 00:44:59;;;;;;;11.20;8.02;;;13.40;99.90;;;;;;5028841;28;20041;-76
2022/09/25 00:47:40;;;;;;;11.02;8.15;;;13.10;99.90;;;;;;5033047;28;20125;-75
2022/09/25 00:50:18;;;;;;;14.20;8.02;;;13.00;99.90;;;;;;5035591;28;20072;-76
2022/09/25 00:52:45;;;;;;;12.93;8.07;;;13.10;99.90;;;;;;5034191;28;20029;-76
2022/09/25 00:55:11;;;;;;;15.88;9.43;;;13.10;99.90;;;;;;5032009;28;20048;-75
2022/09/25 00:57:39;;;;;;;12.18;8.40;;;13.10;99.90;;;;;;5030115;28;20040;-76
2022/09/25 01:00:09;;;;;;;12.23;9.43;;;13.00;99.90;;;;;;5030735;28;20039;-76
2022/09/25 01:02:39;;;;;;;14.73;9.90;;;13.10;99.90;;;;;;5033215;28;20025;-75
2022/09/25 01:05:11;;;;;;;14.23;9.07;;;13.10;99.90;;;;;;5031058;28;20398;-75
2022/09/25 01:07:41;;;;;;;13.98;8.95;;;13.20;99.90;;;;;;5029980;28;20029;-76
2022/09/25 01:10:07;;;;;;;13.23;8.52;;;13.20;99.90;;;;;;5031054;28;20447;-76
2022/09/25 01:12:40;;;;;;;15.65;10.07;;;13.30;99.90;;;;;;5031420;28;20048;-75
2022/09/25 01:15:08;;;;;;;12.82;9.20;;;13.20;99.90;;;;;;5032096;28;20040;-75
2022/09/25 01:18:01;;;;;;;12.35;8.82;;;13.30;99.90;;;;;;5031220;28;20109;-75
2022/09/25 01:20:50;;;;;;;14.02;8.73;;;13.10;99.90;;;;;;5028856;28;20029;-75
2022/09/25 01:23:16;;;;;;;15.98;10.95;;;13.10;99.90;;;;;;5029958;28;20064;-75
2022/09/25 01:26:23;;;;;;;12.27;8.50;;;13.10;99.90;;;;;;5033037;28;20044;-75
2022/09/25 01:29:13;;;;;;;12.25;8.93;;;13.10;99.90;;;;;;5027438;28;20497;-75
2022/09/25 01:32:09;;;;;;;14.02;9.05;;;13.10;99.90;;;;;;5029147;28;20496;-75
2022/09/25 01:34:41;;;;;;;13.88;8.93;;;13.00;99.90;;;;;;5030693;28;20025;-76
2022/09/25 01:37:15;;;;;;;11.65;8.13;;;13.10;99.90;;;;;;5028547;28;20574;-75
2022/09/25 01:39:46;;;;;;;12.13;8.48;;;13.00;99.90;;;;;;5029359;28;20040;-75
2022/09/25 01:42:28;;;;;;;12.98;7.57;;;13.00;99.90;;;;;;5030638;28;20029;-75
2022/09/25 01:45:04;;;;;;;13.52;8.80;;;12.90;99.90;;;;;;5030213;28;20021;-75
2022/09/25 01:47:38;;;;;;;15.85;10.55;;;13.00;99.90;;;;;;5031000;28;20026;-76
2022/09/25 01:50:24;;;;;;;13.88;10.07;;;13.00;99.90;;;;;;5029542;28;20021;-75
2022/09/25 01:52:53;;;;;;;14.82;9.68;;;13.00;99.90;;;;;;5034135;28;21155;-75
2022/09/25 01:55:26;;;;;;;15.75;10.82;;;13.00;99.90;;;;;;5038812;28;20810;-75
2022/09/25 01:57:58;;;;;;;16.42;10.40;;;13.00;99.90;;;;;;5030132;28;20053;-76
2022/09/25 02:00:24;;;;;;;15.85;12.00;;;13.10;99.90;;;;;;5036104;28;20044;-75
2022/09/25 02:03:24;;;;;;;18.48;13.10;;;13.20;99.90;;;;;;5035209;28;20180;-75
2022/09/25 02:05:59;;;;;;;15.98;11.88;;;13.30;99.90;;;;;;5029544;28;20426;-75
2022/09/25 02:08:31;;;;;;;20.60;14.80;;;13.20;99.90;;;;;;5029040;28;20100;-75
2022/09/25 02:11:01;;;;;;;22.23;15.75;;;13.20;99.90;;;;;;5028104;28;20037;-76
2022/09/25 02:13:33;;;;;;;20.45;14.63;;;13.30;99.90;;;;;;5028228;28;20072;-75
2022/09/25 02:16:05;;;;;;;21.77;15.48;;;13.20;99.90;;;;;;5029664;28;20158;-76
2022/09/25 02:21:33;;;;;;;18.80;12.27;;;13.20;99.90;;;;;;5030846;28;20040;-75
2022/09/25 02:24:20;;;;;;;14.98;9.73;;;13.10;99.90;;;;;;5030083;28;20430;-75
2022/09/25 02:26:47;;;;;;;13.68;9.20;;;13.10;99.90;;;;;;5027643;28;20061;-75
2022/09/25 02:29:14;;;;;;;12.80;9.80;;;12.90;99.90;;;;;;5027545;28;20099;-75
2022/09/25 02:31:57;;;;;;;12.23;8.13;;;12.90;99.90;;;;;;5032938;28;20036;-76
2022/09/25 02:34:23;;;;;;;16.65;11.00;;;12.90;99.90;;;;;;5027091;28;20037;-76
2022/09/25 02:36:49;;;;;;;18.30;10.38;;;13.00;99.90;;;;;;5029208;28;20414;-75
2022/09/25 02:39:19;;;;;;;15.43;10.60;;;13.00;99.90;;;;;;5027599;28;20041;-75
2022/09/25 02:42:05;;;;;;;16.77;11.13;;;13.00;99.90;;;;;;5026544;28;20065;-75
2022/09/25 02:44:38;;;;;;;14.02;9.55;;;13.00;99.90;;;;;;5026782;28;20030;-75
2022/09/25 02:47:18;;;;;;;13.75;9.18;;;13.00;99.90;;;;;;5026683;28;20079;-75
2022/09/25 02:49:52;;;;;;;17.20;10.82;;;12.90;99.90;;;;;;5037185;28;20053;-76
2022/09/25 02:52:26;;;;;;;12.07;8.50;;;13.00;99.90;;;;;;5034086;28;20071;-75
2022/09/25 02:55:00;;;;;;;15.57;9.20;;;12.90;99.90;;;;;;5035015;28;20115;-75
2022/09/25 02:58:06;;;;;;;15.30;9.85;;;12.90;99.90;;;;;;5031231;28;20523;-75
2022/09/25 03:00:36;;;;;;;17.73;11.95;;;12.90;99.90;;;;;;5024118;28;20041;-74
2022/09/25 03:03:06;;;;;;;16.02;12.88;;;13.00;99.90;;;;;;5030873;28;20031;-74
2022/09/25 03:05:32;;;;;;;16.67;11.35;;;13.00;99.90;;;;;;5020939;28;20345;-75
2022/09/25 03:10:45;;;;;;;25.92;18.25;;;13.00;99.90;;;;;;5023142;28;20053;-74
2022/09/25 03:13:20;;;;;;;23.88;16.58;;;13.10;99.90;;;;;;4982944;28;1130156;-76
2022/09/25 03:15:58;;;;;;;23.75;16.80;;;13.20;99.90;;;;;;5024284;28;20541;-74
2022/09/25 03:18:24;;;;;;;22.35;15.23;;;13.20;99.90;;;;;;5024182;28;20029;-77
2022/09/25 03:20:51;;;;;;;23.35;15.95;;;13.10;99.90;;;;;;5022116;28;20068;-74
2022/09/25 03:23:17;;;;;;;23.52;16.52;;;13.10;99.90;;;;;;5022511;28;20064;-74
2022/09/25 03:25:43;;;;;;;24.25;16.35;;;13.00;99.90;;;;;;5023539;28;20036;-75
2022/09/25 03:28:10;;;;;;;19.75;14.75;;;13.10;99.90;;;;;;5022973;28;20033;-75
2022/09/25 03:30:40;;;;;;;20.70;14.57;;;13.00;99.90;;;;;;5025358;28;20033;-74
2022/09/25 03:33:09;;;;;;;27.27;17.70;;;13.00;99.90;;;;;;5024232;28;20514;-74
2022/09/25 03:35:38;;;;;;;24.83;16.70;;;13.00;99.90;;;;;;5031752;28;21097;-74
2022/09/25 03:38:05;;;;;;;28.02;18.98;;;13.10;99.90;;;;;;5026958;28;20043;-74
2022/09/25 03:40:31;;;;;;;26.67;17.73;;;13.10;99.90;;;;;;5030945;28;20522;-75
2022/09/25 03:42:56;;;;;;;24.67;17.85;;;13.10;99.90;;;;;;5024339;28;20030;-75
2022/09/25 03:45:22;;;;;;;26.67;18.83;;;13.10;99.90;;;;;;5029384;28;20597;-74
2022/09/25 03:47:47;;;;;;;27.33;19.15;;;13.10;99.90;;;;;;5024136;28;20035;-75
2022/09/25 03:50:13;;;;;;;28.52;19.58;;;13.10;99.90;;;;;;5023123;28;20587;-75
2022/09/25 03:52:39;;;;;;;22.55;16.48;;;13.10;99.90;;;;;;5023888;28;20506;-74
2022/09/25 03:55:05;;;;;;;24.02;17.98;;;13.10;99.90;;;;;;5023912;28;20404;-74
2022/09/25 03:57:32;;;;;;;22.92;16.00;;;13.00;99.90;;;;;;5022997;28;20029;-74
2022/09/25 04:00:00;;;;;;;24.10;17.67;;;12.80;99.90;;;;;;5022589;28;20490;-75
2022/09/25 04:02:27;;;;;;;27.17;15.77;;;12.80;99.90;;;;;;5024446;28;20055;-75
2022/09/25 04:04:53;;;;;;;23.40;15.50;;;12.60;99.90;;;;;;5027908;28;20029;-74
2022/09/25 04:07:20;;;;;;;26.05;17.17;;;12.70;99.90;;;;;;5022780;28;20033;-75
2022/09/25 04:09:46;;;;;;;20.77;14.88;;;12.60;99.90;;;;;;5023595;28;20025;-74
2022/09/25 04:12:11;;;;;;;21.38;14.65;;;12.40;99.90;;;;;;5030799;28;20068;-74
2022/09/25 04:14:37;;;;;;;23.10;15.90;;;12.30;99.90;;;;;;5025878;28;20091;-74
2022/09/25 04:17:03;;;;;;;21.92;15.95;;;12.40;99.90;;;;;;5027422;28;20033;-75
2022/09/25 04:19:29;;;;;;;23.75;13.80;;;12.30;99.90;;;;;;5026156;28;20044;-74
2022/09/25 04:21:54;;;;;;;23.63;16.38;;;12.30;99.90;;;;;;5026661;28;20458;-75
2022/09/25 04:27:05;;;;;;;23.67;16.85;;;12.20;99.90;;;;;;5031018;28;20581;-75
2022/09/25 04:29:31;;;;;;;25.30;17.63;;;12.20;99.90;;;;;;5025637;28;20037;-74
2022/09/25 04:34:40;;;;;;;25.70;18.35;;;12.30;99.90;;;;;;5029612;28;20497;-75
2022/09/25 04:37:06;;;;;;;27.45;17.15;;;12.30;99.90;;;;;;5027280;28;20108;-74
2022/09/25 04:39:32;;;;;;;24.80;16.08;;;12.40;99.90;;;;;;5038465;28;20037;-75
2022/09/25 04:41:57;;;;;;;24.80;17.42;;;12.40;99.90;;;;;;5025601;28;20395;-74
2022/09/25 04:44:23;;;;;;;26.13;17.48;;;12.30;99.90;;;;;;5028744;28;20501;-74
2022/09/25 04:46:49;;;;;;;26.15;17.80;;;12.40;99.90;;;;;;5028999;28;20033;-75
2022/09/25 04:49:15;;;;;;;23.95;16.20;;;12.40;99.90;;;;;;5031749;28;20026;-74
2022/09/25 04:51:41;;;;;;;25.05;18.10;;;12.20;99.90;;;;;;5027060;28;20040;-75
2022/09/25 04:54:06;;;;;;;22.25;15.95;;;12.40;99.90;;;;;;5025095;28;20099;-74
2022/09/25 04:56:32;;;;;;;25.23;16.98;;;12.40;99.90;;;;;;5027676;28;20732;-74
2022/09/25 04:58:58;;;;;;;26.58;17.38;;;12.30;99.90;;;;;;5026621;28;20036;-76
2022/09/25 05:01:23;;;;;;;22.00;16.23;;;12.20;99.90;;;;;;5027492;28;20073;-74
2022/09/25 05:03:52;;;;;;;23.27;16.45;;;12.20;99.90;;;;;;5024904;28;20025;-74
2022/09/25 05:06:18;;;;;;;28.60;17.25;;;12.30;99.90;;;;;;5027324;28;20021;-74
2022/09/25 05:08:48;;;;;;;29.00;18.33;;;12.30;99.90;;;;;;5023607;28;20025;-75
2022/09/25 05:11:14;;;;;;;30.40;18.83;;;12.30;99.90;;;;;;5022227;28;20554;-74
2022/09/25 05:13:40;;;;;;;27.90;20.13;;;12.40;99.90;;;;;;5031573;28;20084;-75
2022/09/25 05:16:06;;;;;;;25.08;17.20;;;12.30;99.90;;;;;;5023458;28;20029;-75
2022/09/25 05:18:32;;;;;;;23.52;17.17;;;12.30;99.90;;;;;;5023875;28;20079;-74
2022/09/25 05:21:05;;;;;;;24.33;16.65;;;12.30;99.90;;;;;;5028246;28;20025;-75
2022/09/25 05:23:31;;;;;;;22.30;16.45;;;12.30;99.90;;;;;;5031813;28;20080;-74
2022/09/25 05:25:59;;;;;;;23.92;15.45;;;12.30;99.90;;;;;;5026737;28;20494;-75
2022/09/25 05:28:25;;;;;;;21.90;15.75;;;12.30;99.90;;;;;;5025189;28;20099;-75
2022/09/25 05:30:51;;;;;;;25.75;16.55;;;12.20;99.90;;;;;;5025755;28;20033;-74
2022/09/25 05:33:17;;;;;;;21.35;15.63;;;12.40;99.90;;;;;;5025946;28;20029;-74
2022/09/25 05:35:43;;;;;;;27.40;18.10;;;12.50;99.90;;;;;;5028888;28;20036;-75
2022/09/25 05:38:09;;;;;;;22.85;16.23;;;12.50;99.90;;;;;;5029665;28;20029;-75
2022/09/25 05:40:38;;;;;;;26.15;16.30;;;12.60;99.90;;;;;;5024877;28;20029;-74
2022/09/25 05:43:04;;;;;;;22.05;16.20;;;12.30;99.90;;;;;;5034885;28;20610;-74
2022/09/25 05:45:30;;;;;;;19.05;13.52;;;12.20;99.90;;;;;;5026043;28;20033;-74
2022/09/25 05:48:04;;;;;;;20.35;15.73;;;12.20;99.90;;;;;;5024687;28;20456;-75
2022/09/25 05:50:33;;;;;;;21.15;14.40;;;12.30;99.90;;;;;;5029143;28;20148;-75
2022/09/25 05:53:01;;;;;;;23.88;14.57;;;12.10;99.90;;;;;;5030820;28;20211;-74
2022/09/25 05:55:27;;;;;;;22.40;15.65;;;12.10;99.90;;;;;;5025333;28;20033;-74
2022/09/25 05:57:53;;;;;;;23.98;15.50;;;12.10;99.90;;;;;;5025806;28;20400;-74
2022/09/25 06:00:19;;;;;;;22.75;15.98;;;12.20;99.90;;;;;;5024992;28;20025;-74
2022/09/25 06:02:45;;;;;;;24.95;16.85;;;12.20;99.90;;;;;;5024020;28;20030;-74
2022/09/25 06:05:10;;;;;;;20.27;13.82;;;12.30;99.90;;;;;;5030727;28;20090;-75
2022/09/25 06:07:36;;;;;;;24.77;17.63;;;12.20;99.90;;;;;;5023168;28;20590;-74
2022/09/25 06:10:02;;;;;;;25.13;16.73;;;12.30;99.90;;;;;;5024101;28;20030;-74
2022/09/25 06:12:29;;;;;;;21.35;15.88;;;12.40;99.90;;;;;;5024171;28;20187;-74
2022/09/25 06:14:54;;;;;;;21.92;15.32;;;12.30;99.90;;;;;;5029327;28;20049;-74
2022/09/25 06:17:20;;;;;;;23.90;16.65;;;12.40;99.90;;;;;;5024345;28;20037;-74
2022/09/25 06:19:46;;;;;;;21.10;15.73;;;12.50;99.90;;;;;;5023320;28;20030;-74
2022/09/25 06:22:12;;;;;;;25.92;17.50;;;12.50;99.90;;;;;;5025714;28;20036;-75
2022/09/25 06:24:38;;;;;;;25.77;17.98;;;12.60;99.90;;;;;;5032129;28;20056;-75
2022/09/25 06:27:05;;;;;;;24.60;18.02;;;12.60;99.90;;;;;;5024530;28;20068;-75
2022/09/25 06:29:31;;;;;;;23.58;17.00;;;12.60;99.90;;;;;;5031663;28;20029;-74
2022/09/25 06:31:57;;;;;;;25.38;17.38;;;12.60;99.90;;;;;;5023771;28;20037;-74
2022/09/25 06:34:22;;;;;;;23.67;16.25;;;12.50;99.90;;;;;;5026191;28;20136;-74
2022/09/25 06:36:48;;;;;;;24.05;17.08;;;12.40;99.90;;;;;;5024791;28;20121;-74
2022/09/25 06:39:14;;;;;;;22.70;15.80;;;12.50;99.90;;;;;;5025711;28;20037;-75
2022/09/25 06:41:40;;;;;;;21.38;15.95;;;12.50;99.90;;;;;;5032162;28;20388;-75
2022/09/25 06:44:07;;;;;;;21.88;15.15;;;12.60;99.90;;;;;;5024867;28;20404;-75
2022/09/25 06:46:34;;;;;;;20.85;13.80;;;12.60;99.90;;;;;;5043564;28;20028;-75
2022/09/25 06:48:59;;;;;;;21.83;15.55;;;12.70;99.90;;;;;;5045360;28;20035;-74
2022/09/25 06:51:31;;;;;;;23.23;16.10;;;12.80;99.90;;;;;;5026271;28;20037;-74
2022/09/25 06:53:57;;;;;;;23.15;16.75;;;12.80;99.90;;;;;;5025030;28;20029;-75
2022/09/25 06:56:23;;;;;;;25.02;17.83;;;12.80;99.90;;;;;;5040375;28;20037;-78
2022/09/25 06:58:50;;;;;;;24.35;17.35;;;13.00;99.90;;;;;;5046773;28;20403;-73
2022/09/25 07:01:15;;;;;;;23.02;16.58;;;13.10;99.90;;;;;;5024614;28;20039;-74
2022/09/25 07:03:44;;;;;;;24.25;16.70;;;13.30;99.90;;;;;;5034626;28;20086;-76
2022/09/25 07:06:14;;;;;;;23.13;17.15;;;13.30;99.90;;;;;;5025709;28;20033;-74
2022/09/25 07:08:42;;;;;;;23.30;17.38;;;13.40;99.90;;;;;;5044442;28;20025;-79
2022/09/25 07:11:12;;;;;;;23.45;17.92;;;13.40;99.90;;;;;;5029906;28;20042;-76
2022/09/25 07:13:38;;;;;;;25.85;18.98;;;13.50;99.90;;;;;;5024444;28;20088;-76
2022/09/25 07:16:05;;;;;;;28.25;19.80;;;13.50;99.90;;;;;;5028980;28;20111;-75
2022/09/25 07:18:32;;;;;;;26.80;19.58;;;13.40;99.90;;;;;;5025611;28;20025;-76
2022/09/25 07:21:03;;;;;;;28.45;20.15;;;13.30;99.90;;;;;;5040592;28;20057;-76
2022/09/25 07:23:30;;;;;;;27.27;18.95;;;13.40;99.90;;;;;;5035647;28;20045;-76
2022/09/25 07:25:57;;;;;;;28.38;19.00;;;13.40;99.90;;;;;;5029938;28;20053;-76
2022/09/25 07:28:23;;;;;;;23.80;19.42;;;13.50;99.90;;;;;;5028673;28;20067;-76
2022/09/25 07:30:51;;;;;;;28.42;19.38;;;13.60;99.90;;;;;;5044942;28;20477;-77
2022/09/25 07:33:17;;;;;;;22.73;16.65;;;13.60;99.90;;;;;;5040015;28;20072;-77
2022/09/25 07:35:42;;;;;;;22.35;16.20;;;13.60;99.90;;;;;;5025590;28;20072;-77
2022/09/25 07:38:08;;;;;;;24.48;16.50;;;13.70;99.90;;;;;;5028763;28;20045;-76
2022/09/25 07:40:34;;;;;;;20.80;16.25;;;13.80;99.90;;;;;;5024412;28;20030;-76
2022/09/25 07:43:01;;;;;;;22.25;16.73;;;13.80;99.90;;;;;;5022914;28;20156;-76
2022/09/25 07:45:27;;;;;;;29.95;16.83;;;13.90;99.90;;;;;;5022655;28;20029;-76
2022/09/25 07:48:01;;;;;;;21.45;15.68;;;14.00;99.90;;;;;;5026975;28;20064;-77
2022/09/25 07:50:28;;;;;;;21.92;15.63;;;14.00;99.90;;;;;;5030097;28;20030;-78
2022/09/25 07:52:54;;;;;;;23.08;15.82;;;14.10;99.90;;;;;;5026984;28;20518;-78
2022/09/25 07:55:20;;;;;;;22.48;16.35;;;14.10;99.90;;;;;;5026976;28;20033;-77
2022/09/25 07:57:46;;;;;;;20.40;15.30;;;14.20;99.90;;;;;;5031755;28;20025;-79
2022/09/25 08:00:12;;;;;;;24.38;15.68;;;14.30;99.90;;;;;;5029029;28;20041;-77
2022/09/25 08:02:38;;;;;;;22.38;15.60;;;14.40;99.90;;;;;;5031923;28;20068;-77
2022/09/25 08:05:04;;;;;;;21.90;15.32;;;14.40;99.90;;;;;;5028901;28;20017;-76
2022/09/25 08:07:30;;;;;;;18.92;14.88;;;14.50;99.90;;;;;;5026224;28;20095;-76
2022/09/25 08:09:56;;;;;;;18.63;14.60;;;14.50;99.90;;;;;;5029412;28;20025;-76
2022/09/25 08:12:24;;;;;;;20.27;14.52;;;14.30;99.90;;;;;;5027505;28;20498;-76
2022/09/25 08:14:53;;;;;;;20.95;14.82;;;14.40;99.90;;;;;;5026151;28;20120;-76
2022/09/25 08:17:21;;;;;;;20.95;15.55;;;14.40;99.90;;;;;;5028224;28;20075;-75
2022/09/25 08:19:46;;;;;;;19.10;14.13;;;14.40;99.90;;;;;;5028838;28;20021;-76
2022/09/25 08:22:13;;;;;;;26.65;15.93;;;14.40;99.90;;;;;;5024277;28;20554;-76
2022/09/25 08:24:38;;;;;;;18.25;13.90;;;14.50;99.90;;;;;;5026853;28;20029;-76
2022/09/25 08:27:06;;;;;;;17.73;14.02;;;14.60;99.90;;;;;;5026862;28;20479;-76
2022/09/25 08:29:32;;;;;;;19.13;13.73;;;14.50;99.90;;;;;;5027175;28;20060;-77
2022/09/25 08:31:58;;;;;;;20.98;14.90;;;14.50;99.90;;;;;;5023892;28;20033;-76
2022/09/25 08:34:24;;;;;;;22.40;15.50;;;14.70;99.90;;;;;;5023766;28;20039;-76
2022/09/25 08:36:49;;;;;;;21.77;14.30;;;14.90;99.90;;;;;;5022783;28;20176;-76
2022/09/25 08:39:16;;;;;;;17.98;13.85;;;14.80;99.90;;;;;;5025404;28;20087;-76
2022/09/25 08:41:51;;;;;;;20.58;13.85;;;14.80;99.90;;;;;;5022387;28;20104;-77
2022/09/25 08:44:35;;;;;;;22.83;13.75;;;14.80;99.90;;;;;;5024893;28;20057;-76
2022/09/25 08:50:18;;;;;;;18.55;13.40;;;14.90;99.90;;;;;;5024437;28;20094;-76
2022/09/25 08:52:49;;;;;;;19.42;14.50;;;14.90;99.90;;;;;;5022843;28;20038;-77
2022/09/25 08:58:28;;;;;;;19.00;12.95;;;15.20;99.90;;;;;;5031724;28;20103;-78
2022/09/25 09:00:59;;;;;;;18.42;12.57;;;15.30;99.90;;;;;;5023390;28;20030;-77
2022/09/25 09:03:29;;;;;;;15.82;11.60;;;15.30;99.90;;;;;;5022959;28;20030;-78
2022/09/25 09:06:04;;;;;;;18.13;13.60;;;15.30;99.90;;;;;;5028748;28;20402;-81
2022/09/25 09:08:33;;;;;;;17.50;11.82;;;15.30;99.90;;;;;;5029599;28;20083;-77
2022/09/25 09:11:21;;;;;;;18.42;12.98;;;15.60;99.90;;;;;;5020361;28;20455;-77
2022/09/25 09:13:59;;;;;;;17.05;13.27;;;15.60;99.90;;;;;;5027695;28;20431;-77
2022/09/25 09:16:31;;;;;;;16.08;12.32;;;15.50;99.90;;;;;;5022878;28;20045;-77
2022/09/25 09:18:59;;;;;;;18.00;12.90;;;15.90;99.90;;;;;;5021957;28;20524;-79
2022/09/25 09:21:33;;;;;;;17.77;11.52;;;16.20;99.90;;;;;;5023820;28;20111;-78
2022/09/25 09:24:05;;;;;;;13.88;11.13;;;16.60;99.90;;;;;;5024046;28;20029;-77
2022/09/25 09:26:56;;;;;;;13.27;9.48;;;16.50;99.90;;;;;;5023657;28;20067;-78
2022/09/25 09:29:27;;;;;;;15.02;11.60;;;16.50;99.90;;;;;;5022674;28;20060;-78
2022/09/25 09:32:36;;;;;;;17.05;10.18;;;16.30;99.90;;;;;;5022291;28;20044;-77
2022/09/25 09:35:14;;;;;;;12.80;10.27;;;16.20;99.90;;;;;;5023572;28;20117;-77
2022/09/25 09:37:49;;;;;;;13.27;10.18;;;16.10;99.90;;;;;;5030068;28;20474;-78
2022/09/25 09:40:50;;;;;;;12.57;8.48;;;16.10;99.90;;;;;;5028566;28;20574;-77
2022/09/25 09:43:50;;;;;;;12.25;9.07;;;16.10;99.90;;;;;;5022961;28;20047;-78
2022/09/25 09:46:47;;;;;;;13.10;9.10;;;16.30;99.90;;;;;;5023218;28;20605;-77
2022/09/25 09:49:33;;;;;;;12.30;9.07;;;16.40;99.90;;;;;;5033398;28;20049;-77
2022/09/25 09:52:09;;;;;;;12.23;9.15;;;16.50;99.90;;;;;;5021134;28;20231;-77
2022/09/25 09:55:01;;;;;;;11.02;8.40;;;16.70;99.90;;;;;;5022343;28;20037;-77
2022/09/25 09:57:31;;;;;;;10.77;8.55;;;16.90;99.90;;;;;;5024250;28;20466;-77
2022/09/25 10:00:12;;;;;;;10.77;7.80;;;17.00;99.90;;;;;;5024747;28;20033;-79
2022/09/25 10:02:52;;;;;;;9.57;6.35;;;17.20;99.90;;;;;;5025798;28;20626;-77
2022/09/25 10:05:29;;;;;;;10.07;6.60;;;17.20;99.90;;;;;;5024101;28;20029;-77
2022/09/25 10:07:55;;;;;;;9.10;6.57;;;17.20;99.90;;;;;;5022926;28;20029;-77
2022/09/25 10:10:27;;;;;;;9.27;6.65;;;17.30;99.90;;;;;;5027429;28;20601;-78
2022/09/25 10:12:53;;;;;;;8.32;6.10;;;17.40;99.90;;;;;;5021953;28;20119;-77
2022/09/25 10:15:28;;;;;;;9.77;6.72;;;17.60;99.90;;;;;;5023160;28;20128;-78
2022/09/25 10:17:54;;;;;;;;;;;17.60;99.90;;;;;;5028389;28;20038;-77
2022/09/25 10:20:22;;;;;;;11.57;8.50;;;17.60;99.90;;;;;;5026832;28;19909;-77
2022/09/25 10:22:52;;;;;;;12.73;9.25;;;17.60;99.90;;;;;;5025814;28;20045;-79
2022/09/25 10:25:38;;;;;;;13.98;9.90;;;17.70;99.90;;;;;;5028819;28;20034;-77
2022/09/25 10:28:24;;;;;;;14.48;10.55;;;17.50;99.90;;;;;;5029083;28;20055;-78
2022/09/25 10:30:51;;;;;;;11.70;8.60;;;17.50;99.90;;;;;;5029743;28;20029;-77
2022/09/25 10:33:22;;;;;;;10.88;8.27;;;17.60;99.90;;;;;;5028612;28;20033;-77
2022/09/25 10:35:53;;;;;;;13.50;8.77;;;17.80;99.90;;;;;;5034431;28;20096;-77
2022/09/25 10:38:33;;;;;;;11.60;8.15;;;17.90;99.90;;;;;;5047128;28;20124;-77
2022/09/25 10:41:05;;;;;;;8.57;5.90;;;18.30;99.90;;;;;;5032209;28;20140;-77
2022/09/25 10:43:31;;;;;;;8.30;5.28;;;18.60;99.90;;;;;;5042746;28;20102;-77
2022/09/25 10:46:12;;;;;;;7.07;4.93;;;18.80;99.80;;;;;;5041507;28;20483;-80
2022/09/25 10:51:24;;;;;;;6.25;4.50;;;19.00;99.30;;;;;;5038716;28;20048;-81
2022/09/25 10:54:12;;;;;;;7.97;4.95;;;18.80;98.80;;;;;;5043987;28;20026;-78
2022/09/25 10:56:39;;;;;;;5.57;4.25;;;18.80;98.60;;;;;;5025057;28;20388;-76
2022/09/25 10:59:16;;;;;;;5.60;4.03;;;19.00;99.20;;;;;;5025192;28;20029;-79
2022/09/25 11:01:43;;;;;;;7.30;5.45;;;19.20;98.10;;;;;;5020072;28;20383;-76
2022/09/25 11:04:21;;;;;;;8.20;4.43;;;19.40;98.70;;;;;;5022125;28;20036;-78
2022/09/25 11:06:51;;;;;;;5.47;3.60;;;19.30;98.20;;;;;;5025652;28;20029;-78
2022/09/25 11:09:25;;;;;;;7.80;5.00;;;19.40;98.00;;;;;;5025906;28;20538;-78
2022/09/25 11:11:52;;;;;;;;;;;19.40;98.70;;;;;;5026983;28;20711;-77
2022/09/25 11:14:18;;;;;;;6.53;4.45;;;19.40;98.10;;;;;;5024700;28;20027;-78
2022/09/25 11:16:53;;;;;;;8.27;4.40;;;19.30;98.40;;;;;;5025220;28;20573;-78
2022/09/25 11:19:32;;;;;;;6.18;4.38;;;19.20;97.80;;;;;;5023408;28;20044;-78
2022/09/25 11:22:13;;;;;;;8.77;5.10;;;19.10;98.00;;;;;;5028468;28;20033;-79
2022/09/25 11:25:02;;;;;;;6.97;4.68;;;19.40;98.80;;;;;;5033854;28;20490;-77
2022/09/25 11:27:44;;;;;;;6.35;4.55;;;19.90;98.40;;;;;;5033662;28;20352;-76
2022/09/25 11:30:21;;;;;;;7.78;4.40;;;20.20;97.20;;;;;;5028137;28;20079;-75
2022/09/25 11:33:08;;;;;;;5.65;3.95;;;19.90;96.50;;;;;;5030759;28;20164;-75
2022/09/25 11:36:01;;;;;;;5.75;3.55;;;19.90;96.80;;;;;;5023353;28;20116;-76
2022/09/25 11:41:29;;;;;;;6.07;3.90;;;20.10;97.60;;;;;;5038366;28;20067;-76
2022/09/25 11:44:19;;;;;;;4.47;2.97;;;20.30;97.60;;;;;;5025040;28;20029;-75
2022/09/25 11:46:53;;;;;;;4.20;2.53;;;20.40;96.80;;;;;;5031707;28;20036;-75
2022/09/25 11:49:21;;;;;;;;;;;20.40;97.60;;;;;;5023745;28;20037;-75
2022/09/25 11:51:59;;;;;;;5.28;3.22;;;20.40;97.60;;;;;;5030689;28;19921;-75
2022/09/25 11:54:28;;;;;;;3.75;2.10;;;20.40;96.70;;;;;;5031699;28;20128;-75
2022/09/25 11:56:57;;;;;;;4.53;2.28;;;20.40;96.30;;;;;;5024034;28;20026;-76
2022/09/25 11:59:41;;;;;;;6.90;2.42;;;20.50;97.50;;;;;;5024349;28;20936;-75
2022/09/25 12:02:44;;;;;;;7.20;2.33;;;20.90;96.70;;;;;;5028050;28;20425;-76
2022/09/25 12:05:26;;;;;;;5.43;2.40;;;21.30;97.00;;;;;;5024888;28;20061;-75
2022/09/25 12:08:03;;;;;;;3.63;2.03;;;21.60;97.00;;;;;;5035255;28;20505;-77
2022/09/25 12:10:53;;;;;;;5.55;1.95;;;21.50;96.90;;;;;;5032022;28;20091;-75
2022/09/25 12:13:48;;;;;;;2.80;1.60;;;21.20;95.70;;;;;;5025472;28;20644;-76
2022/09/25 12:16:18;;;;;;;;;;;20.80;95.50;;;;;;5025562;28;20025;-75
2022/09/25 12:18:59;;;;;;;2.75;1.63;;;20.60;95.90;;;;;;5026846;28;19919;-75
2022/09/25 12:21:58;;;;;;;5.55;1.90;;;20.50;95.40;;;;;;5022461;28;20395;-76
2022/09/25 12:25:02;;;;;;;3.65;1.70;;;20.30;96.20;;;;;;5023820;28;20057;-76
2022/09/25 12:27:57;;;;;;;3.63;1.88;;;20.30;96.60;;;;;;5036268;28;20127;-75
2022/09/25 12:30:33;;;;;;;3.75;1.42;;;20.00;96.60;;;;;;5022493;28;20082;-76
2022/09/25 12:33:12;;;;;;;3.33;1.58;;;20.00;96.20;;;;;;5021698;28;20426;-76
2022/09/25 12:35:47;;;;;;;4.68;1.90;;;20.00;96.20;;;;;;5022626;28;20117;-76
2022/09/25 12:38:27;;;;;;;5.20;2.03;;;19.80;96.30;;;;;;5032789;28;20029;-76
2022/09/25 12:41:03;;;;;;;3.38;1.80;;;19.80;97.00;;;;;;5024574;28;20083;-76
2022/09/25 12:43:54;;;;;;;3.58;1.98;;;19.70;97.30;;;;;;5030787;28;20032;-76
2022/09/25 12:46:22;;;;;;;3.00;1.50;;;19.40;97.20;;;;;;5027291;28;20041;-76
2022/09/25 12:48:57;;;;;;;3.05;1.65;;;19.40;96.60;;;;;;5024115;28;20160;-76
2022/09/25 12:51:44;;;;;;;3.38;1.88;;;19.40;96.40;;;;;;5023828;28;20483;-76
2022/09/25 12:54:19;;;;;;;6.75;2.30;;;19.30;97.60;;;;;;5023387;28;20036;-76
2022/09/25 12:57:03;;;;;;;3.95;2.05;;;19.20;97.70;;;;;;5024908;28;20053;-76
2022/09/25 12:59:43;;;;;;;5.20;2.38;;;19.10;97.80;;;;;;5022262;28;20079;-76
2022/09/25 13:02:26;;;;;;;7.25;2.60;;;19.10;98.30;;;;;;5024836;28;20052;-75
2022/09/25 13:05:11;;;;;;;5.25;2.65;;;18.90;98.50;;;;;;5024219;28;20073;-75
2022/09/25 13:07:36;;;;;;;;;;;18.90;98.80;;;;;;5025267;28;20036;-76
2022/09/25 13:10:18;;;;;;;3.92;2.30;;;18.90;98.70;;;;;;5027443;28;19909;-76
2022/09/25 13:12:46;;;;;;;5.55;2.75;;;18.90;99.20;;;;;;5026626;28;20054;-76
2022/09/25 13:15:14;;;;;;;4.60;2.85;;;18.80;99.60;;;;;;5028216;28;20037;-75
2022/09/25 13:17:40;;;;;;;5.35;3.00;;;18.80;99.10;;;;;;5022525;28;20021;-76
2022/09/25 13:20:24;;;;;;;5.45;2.97;;;18.80;99.20;;;;;;5029804;28;20060;-76